sensor_id;sensor_type;location;lat;lon;timestamp;pressure;altitude;pressure_sealevel;temperature;humidity
11343;BME280;5726;42.160;24.746;2023-05-23T00:02:10;99286.47;;;16.76;100.00
11343;BME280;5726;42.160;24.746;2023-05-23T00:04:37;99281.50;;;16.78;100.00
11343;BME280;5726;42.160;24.746;2023-05-23T00:07:03;99286.47;;;16.76;100.00
11343;BME280;5726;42.160;24.746;2023-05-23T00:09:28;99280.53;;;16.63;100.00
11343;BME280;5726;42.160;24.746;2023-05-23T00:11:54;99284.34;;;16.50;100.00
11343;BME280;5726;42.160;24.746;2023-05-23T00:14:19;99279.09;;;16.65;100.00
11343;BME280;5726;42.160;24.746;2023-05-23T00:16:45;99279.75;;;16.62;100.00
11343;BME280;5726;42.160;24.746;2023-05-23T00:19:14;99275.16;;;16.74;100.00
11343;BME280;5726;42.160;24.746;2023-05-23T00:21:40;99271.31;;;16.64;100.00
11343;BME280;5726;42.160;24.746;2023-05-23T00:24:08;99275.84;;;16.39;100.00
11343;BME280;5726;42.160;24.746;2023-05-23T00:26:34;99269.50;;;16.35;100.00
11343;BME280;5726;42.160;24.746;2023-05-23T00:28:59;99277.28;;;16.37;100.00
11343;BME280;5726;42.160;24.746;2023-05-23T00:31:25;99269.22;;;16.49;100.00
11343;BME280;5726;42.160;24.746;2023-05-23T00:33:50;99273.03;;;16.48;100.00
11343;BME280;5726;42.160;24.746;2023-05-23T00:36:16;99275.28;;;16.46;100.00
11343;BME280;5726;42.160;24.746;2023-05-23T00:38:42;99273.97;;;16.52;100.00
11343;BME280;5726;42.160;24.746;2023-05-23T00:41:10;99270.75;;;16.38;100.00
11343;BME280;5726;42.160;24.746;2023-05-23T00:43:36;99278.00;;;16.46;100.00
11343;BME280;5726;42.160;24.746;2023-05-23T00:46:01;99271.59;;;16.50;100.00
11343;BME280;5726;42.160;24.746;2023-05-23T00:48:27;99267.69;;;16.19;100.00
11343;BME280;5726;42.160;24.746;2023-05-23T00:50:54;99269.75;;;16.42;100.00
11343;BME280;5726;42.160;24.746;2023-05-23T00:53:20;99276.69;;;16.11;100.00
11343;BME280;5726;42.160;24.746;2023-05-23T00:55:46;99272.72;;;16.09;100.00
11343;BME280;5726;42.160;24.746;2023-05-23T00:58:12;99267.13;;;16.34;100.00
11343;BME280;5726;42.160;24.746;2023-05-23T01:00:40;99254.38;;;16.14;100.00
11343;BME280;5726;42.160;24.746;2023-05-23T01:03:06;99261.50;;;16.39;100.00
11343;BME280;5726;42.160;24.746;2023-05-23T01:05:32;99255.25;;;16.47;100.00
11343;BME280;5726;42.160;24.746;2023-05-23T01:07:57;99263.53;;;16.42;100.00
11343;BME280;5726;42.160;24.746;2023-05-23T01:10:27;99251.81;;;16.38;100.00
11343;BME280;5726;42.160;24.746;2023-05-23T01:15:44;99257.56;;;16.69;100.00
11343;BME280;5726;42.160;24.746;2023-05-23T01:18:16;99259.41;;;16.76;100.00
11343;BME280;5726;42.160;24.746;2023-05-23T01:20:54;99254.56;;;16.50;100.00
11343;BME280;5726;42.160;24.746;2023-05-23T01:26:29;99258.47;;;16.20;100.00
11343;BME280;5726;42.160;24.746;2023-05-23T01:31:48;99253.38;;;16.39;100.00
11343;BME280;5726;42.160;24.746;2023-05-23T01:34:17;99253.31;;;16.27;100.00
11343;BME280;5726;42.160;24.746;2023-05-23T01:36:43;99249.38;;;16.25;100.00
11343;BME280;5726;42.160;24.746;2023-05-23T01:39:09;99246.13;;;16.11;100.00
11343;BME280;5726;42.160;24.746;2023-05-23T01:41:35;99251.59;;;16.02;100.00
11343;BME280;5726;42.160;24.746;2023-05-23T01:44:02;99249.28;;;16.13;100.00
11343;BME280;5726;42.160;24.746;2023-05-23T01:46:28;99251.06;;;16.09;100.00
11343;BME280;5726;42.160;24.746;2023-05-23T01:48:56;99241.19;;;16.13;100.00
11343;BME280;5726;42.160;24.746;2023-05-23T01:51:22;99247.25;;;15.89;100.00
11343;BME280;5726;42.160;24.746;2023-05-23T01:53:49;99248.94;;;15.74;100.00
11343;BME280;5726;42.160;24.746;2023-05-23T01:56:15;99243.84;;;15.72;100.00
11343;BME280;5726;42.160;24.746;2023-05-23T01:58:41;99246.47;;;15.89;100.00
11343;BME280;5726;42.160;24.746;2023-05-23T02:01:08;99244.81;;;15.96;100.00
11343;BME280;5726;42.160;24.746;2023-05-23T02:03:34;99247.91;;;16.07;100.00
11343;BME280;5726;42.160;24.746;2023-05-23T02:05:59;99252.31;;;15.91;100.00
11343;BME280;5726;42.160;24.746;2023-05-23T02:08:25;99253.44;;;15.90;100.00
11343;BME280;5726;42.160;24.746;2023-05-23T02:10:50;99249.94;;;15.89;100.00
11343;BME280;5726;42.160;24.746;2023-05-23T02:13:16;99247.97;;;15.98;100.00
11343;BME280;5726;42.160;24.746;2023-05-23T02:15:41;99237.28;;;16.02;100.00
11343;BME280;5726;42.160;24.746;2023-05-23T02:18:07;99249.03;;;16.06;100.00
11343;BME280;5726;42.160;24.746;2023-05-23T02:20:32;99240.91;;;15.85;100.00
11343;BME280;5726;42.160;24.746;2023-05-23T02:22:57;99241.84;;;15.89;100.00
11343;BME280;5726;42.160;24.746;2023-05-23T02:25:23;99238.53;;;15.84;100.00
11343;BME280;5726;42.160;24.746;2023-05-23T02:27:48;99238.91;;;15.94;100.00
11343;BME280;5726;42.160;24.746;2023-05-23T02:30:14;99249.41;;;15.96;100.00
11343;BME280;5726;42.160;24.746;2023-05-23T02:32:39;99246.13;;;15.90;100.00
11343;BME280;5726;42.160;24.746;2023-05-23T02:35:05;99251.00;;;15.97;100.00
11343;BME280;5726;42.160;24.746;2023-05-23T02:37:30;99243.56;;;15.94;100.00
11343;BME280;5726;42.160;24.746;2023-05-23T02:39:55;99253.09;;;15.71;100.00
11343;BME280;5726;42.160;24.746;2023-05-23T02:42:21;99257.06;;;15.94;100.00
11343;BME280;5726;42.160;24.746;2023-05-23T02:44:46;99246.06;;;15.78;100.00
11343;BME280;5726;42.160;24.746;2023-05-23T02:47:12;99253.75;;;15.68;100.00
11343;BME280;5726;42.160;24.746;2023-05-23T02:49:37;99244.66;;;15.73;100.00
11343;BME280;5726;42.160;24.746;2023-05-23T02:52:03;99238.31;;;15.69;100.00
11343;BME280;5726;42.160;24.746;2023-05-23T02:54:28;99242.63;;;15.70;100.00
11343;BME280;5726;42.160;24.746;2023-05-23T02:56:54;99247.59;;;15.59;100.00
11343;BME280;5726;42.160;24.746;2023-05-23T02:59:20;99245.41;;;15.81;100.00
11343;BME280;5726;42.160;24.746;2023-05-23T03:01:46;99232.31;;;15.83;100.00
11343;BME280;5726;42.160;24.746;2023-05-23T03:04:12;99237.00;;;15.75;100.00
11343;BME280;5726;42.160;24.746;2023-05-23T03:06:38;99243.19;;;15.75;100.00
11343;BME280;5726;42.160;24.746;2023-05-23T03:09:04;99234.44;;;15.78;100.00
11343;BME280;5726;42.160;24.746;2023-05-23T03:11:29;99236.56;;;15.73;100.00
11343;BME280;5726;42.160;24.746;2023-05-23T03:13:55;99243.63;;;15.57;100.00
11343;BME280;5726;42.160;24.746;2023-05-23T03:16:21;99239.50;;;15.79;100.00
11343;BME280;5726;42.160;24.746;2023-05-23T03:18:47;99238.78;;;15.71;100.00
11343;BME280;5726;42.160;24.746;2023-05-23T03:21:13;99246.22;;;15.74;100.00
11343;BME280;5726;42.160;24.746;2023-05-23T03:23:38;99254.31;;;16.02;100.00
11343;BME280;5726;42.160;24.746;2023-05-23T03:26:03;99254.81;;;15.96;100.00
11343;BME280;5726;42.160;24.746;2023-05-23T03:28:30;99248.34;;;15.88;100.00
11343;BME280;5726;42.160;24.746;2023-05-23T03:30:56;99249.88;;;15.98;100.00
11343;BME280;5726;42.160;24.746;2023-05-23T03:33:22;99250.88;;;15.93;100.00
11343;BME280;5726;42.160;24.746;2023-05-23T03:35:47;99243.81;;;16.01;100.00
11343;BME280;5726;42.160;24.746;2023-05-23T03:38:13;99247.72;;;16.12;100.00
11343;BME280;5726;42.160;24.746;2023-05-23T03:40:38;99250.53;;;16.15;100.00
11343;BME280;5726;42.160;24.746;2023-05-23T03:43:05;99246.78;;;16.08;100.00
11343;BME280;5726;42.160;24.746;2023-05-23T03:45:31;99242.22;;;16.00;100.00
11343;BME280;5726;42.160;24.746;2023-05-23T03:47:57;99243.63;;;16.06;100.00
11343;BME280;5726;42.160;24.746;2023-05-23T03:50:23;99250.19;;;16.17;100.00
11343;BME280;5726;42.160;24.746;2023-05-23T03:52:48;99243.00;;;16.00;100.00
11343;BME280;5726;42.160;24.746;2023-05-23T03:55:14;99243.75;;;16.09;100.00
11343;BME280;5726;42.160;24.746;2023-05-23T03:57:39;99244.75;;;16.45;100.00
11343;BME280;5726;42.160;24.746;2023-05-23T04:00:05;99246.34;;;17.02;100.00
11343;BME280;5726;42.160;24.746;2023-05-23T04:02:36;99243.59;;;17.34;97.91
11343;BME280;5726;42.160;24.746;2023-05-23T04:05:01;99250.72;;;17.63;95.43
11343;BME280;5726;42.160;24.746;2023-05-23T04:07:27;99250.47;;;17.79;93.69
11343;BME280;5726;42.160;24.746;2023-05-23T04:09:54;99247.81;;;17.95;91.45
11343;BME280;5726;42.160;24.746;2023-05-23T04:12:19;99258.34;;;17.84;91.17
11343;BME280;5726;42.160;24.746;2023-05-23T04:14:46;99263.38;;;17.59;91.84
11343;BME280;5726;42.160;24.746;2023-05-23T04:17:12;99264.72;;;17.53;92.47
11343;BME280;5726;42.160;24.746;2023-05-23T04:19:38;99259.97;;;17.62;92.25
11343;BME280;5726;42.160;24.746;2023-05-23T04:22:04;99269.44;;;17.91;90.77
11343;BME280;5726;42.160;24.746;2023-05-23T04:24:29;99270.69;;;17.94;90.28
11343;BME280;5726;42.160;24.746;2023-05-23T04:26:55;99268.81;;;18.10;89.69
11343;BME280;5726;42.160;24.746;2023-05-23T04:29:20;99264.31;;;18.25;88.08
11343;BME280;5726;42.160;24.746;2023-05-23T04:31:46;99270.16;;;18.67;86.98
11343;BME280;5726;42.160;24.746;2023-05-23T04:34:11;99271.66;;;19.07;84.37
11343;BME280;5726;42.160;24.746;2023-05-23T04:36:37;99268.16;;;19.21;83.14
11343;BME280;5726;42.160;24.746;2023-05-23T04:39:04;99280.25;;;19.55;82.16
11343;BME280;5726;42.160;24.746;2023-05-23T04:41:29;99278.38;;;19.89;80.99
11343;BME280;5726;42.160;24.746;2023-05-23T04:43:55;99275.66;;;19.89;80.93
11343;BME280;5726;42.160;24.746;2023-05-23T04:46:22;99282.94;;;19.85;82.07
11343;BME280;5726;42.160;24.746;2023-05-23T04:48:52;99276.78;;;20.04;82.90
11343;BME280;5726;42.160;24.746;2023-05-23T04:51:18;99273.16;;;20.15;81.61
11343;BME280;5726;42.160;24.746;2023-05-23T04:53:46;99270.59;;;20.41;80.70
11343;BME280;5726;42.160;24.746;2023-05-23T04:56:11;99276.63;;;20.68;78.31
11343;BME280;5726;42.160;24.746;2023-05-23T04:58:37;99276.91;;;20.82;77.61
11343;BME280;5726;42.160;24.746;2023-05-23T05:01:04;99283.16;;;21.05;76.32
11343;BME280;5726;42.160;24.746;2023-05-23T05:03:31;99273.75;;;21.03;76.63
11343;BME280;5726;42.160;24.746;2023-05-23T05:05:56;99278.81;;;20.82;76.70
11343;BME280;5726;42.160;24.746;2023-05-23T05:08:22;99279.13;;;21.18;75.53
11343;BME280;5726;42.160;24.746;2023-05-23T05:10:47;99278.28;;;21.36;75.20
11343;BME280;5726;42.160;24.746;2023-05-23T05:13:13;99286.66;;;21.47;74.61
11343;BME280;5726;42.160;24.746;2023-05-23T05:15:38;99277.03;;;21.78;74.79
11343;BME280;5726;42.160;24.746;2023-05-23T05:18:03;99286.47;;;21.84;73.04
11343;BME280;5726;42.160;24.746;2023-05-23T05:20:29;99293.41;;;21.53;73.71
11343;BME280;5726;42.160;24.746;2023-05-23T05:22:55;99287.22;;;21.37;74.11
11343;BME280;5726;42.160;24.746;2023-05-23T05:25:24;99291.81;;;20.88;75.89
11343;BME280;5726;42.160;24.746;2023-05-23T05:27:51;99290.34;;;20.57;78.93
11343;BME280;5726;42.160;24.746;2023-05-23T05:30:16;99293.38;;;20.89;79.11
11343;BME280;5726;42.160;24.746;2023-05-23T05:32:42;99292.66;;;20.92;78.88
11343;BME280;5726;42.160;24.746;2023-05-23T05:35:10;99300.00;;;20.88;78.05
11343;BME280;5726;42.160;24.746;2023-05-23T05:37:38;99301.94;;;20.69;78.27
11343;BME280;5726;42.160;24.746;2023-05-23T05:40:04;99299.28;;;20.72;78.63
11343;BME280;5726;42.160;24.746;2023-05-23T05:42:31;99296.69;;;20.79;78.34
11343;BME280;5726;42.160;24.746;2023-05-23T05:44:57;99294.09;;;20.49;78.96
11343;BME280;5726;42.160;24.746;2023-05-23T05:47:22;99295.50;;;20.43;79.49
11343;BME280;5726;42.160;24.746;2023-05-23T05:49:47;99298.81;;;20.52;79.87
11343;BME280;5726;42.160;24.746;2023-05-23T05:52:13;99295.53;;;20.80;79.03
11343;BME280;5726;42.160;24.746;2023-05-23T05:54:38;99296.94;;;21.12;78.21
11343;BME280;5726;42.160;24.746;2023-05-23T05:57:04;99303.16;;;21.54;75.80
11343;BME280;5726;42.160;24.746;2023-05-23T05:59:29;99293.41;;;21.11;76.24
11343;BME280;5726;42.160;24.746;2023-05-23T06:01:55;99296.63;;;21.17;75.42
11343;BME280;5726;42.160;24.746;2023-05-23T06:04:20;99300.94;;;21.18;75.94
11343;BME280;5726;42.160;24.746;2023-05-23T06:06:45;99314.09;;;21.54;74.82
11343;BME280;5726;42.160;24.746;2023-05-23T06:09:11;99313.50;;;21.45;74.04
11343;BME280;5726;42.160;24.746;2023-05-23T06:11:36;99303.84;;;21.95;72.52
11343;BME280;5726;42.160;24.746;2023-05-23T06:14:08;99299.41;;;22.39;71.06
11343;BME280;5726;42.160;24.746;2023-05-23T06:16:34;99301.50;;;22.49;71.47
11343;BME280;5726;42.160;24.746;2023-05-23T06:18:59;99294.31;;;22.99;70.54
11343;BME280;5726;42.160;24.746;2023-05-23T06:21:25;99287.84;;;22.81;70.76
11343;BME280;5726;42.160;24.746;2023-05-23T06:23:50;99295.88;;;23.00;70.59
11343;BME280;5726;42.160;24.746;2023-05-23T06:26:16;99300.69;;;23.10;69.84
11343;BME280;5726;42.160;24.746;2023-05-23T06:28:42;99301.91;;;23.16;70.41
11343;BME280;5726;42.160;24.746;2023-05-23T06:31:07;99301.09;;;23.12;70.47
11343;BME280;5726;42.160;24.746;2023-05-23T06:33:34;99298.97;;;22.95;70.89
11343;BME280;5726;42.160;24.746;2023-05-23T06:36:00;99296.72;;;23.04;70.33
11343;BME280;5726;42.160;24.746;2023-05-23T06:38:30;99301.03;;;23.05;68.87
11343;BME280;5726;42.160;24.746;2023-05-23T06:40:58;99288.34;;;22.58;71.25
11343;BME280;5726;42.160;24.746;2023-05-23T06:43:23;99293.50;;;22.66;71.28
11343;BME280;5726;42.160;24.746;2023-05-23T06:45:48;99289.72;;;22.74;71.43
11343;BME280;5726;42.160;24.746;2023-05-23T06:48:14;99296.59;;;22.94;70.75
11343;BME280;5726;42.160;24.746;2023-05-23T06:50:40;99298.72;;;23.50;68.76
11343;BME280;5726;42.160;24.746;2023-05-23T06:53:05;99292.41;;;23.43;68.78
11343;BME280;5726;42.160;24.746;2023-05-23T06:55:31;99287.31;;;23.88;68.53
11343;BME280;5726;42.160;24.746;2023-05-23T06:57:58;99279.94;;;23.95;66.31
11343;BME280;5726;42.160;24.746;2023-05-23T07:00:24;99282.38;;;24.07;67.56
11343;BME280;5726;42.160;24.746;2023-05-23T07:02:50;99274.44;;;24.52;66.04
11343;BME280;5726;42.160;24.746;2023-05-23T07:05:15;99275.50;;;24.34;64.60
11343;BME280;5726;42.160;24.746;2023-05-23T07:07:41;99271.69;;;24.59;63.13
11343;BME280;5726;42.160;24.746;2023-05-23T07:10:08;99274.34;;;24.35;64.30
11343;BME280;5726;42.160;24.746;2023-05-23T07:12:33;99274.06;;;24.57;65.13
11343;BME280;5726;42.160;24.746;2023-05-23T07:14:59;99265.94;;;24.92;64.60
11343;BME280;5726;42.160;24.746;2023-05-23T07:17:24;99265.63;;;25.24;63.60
11343;BME280;5726;42.160;24.746;2023-05-23T07:19:49;99265.66;;;25.45;60.57
11343;BME280;5726;42.160;24.746;2023-05-23T07:22:15;99261.31;;;25.54;60.25
11343;BME280;5726;42.160;24.746;2023-05-23T07:24:40;99264.84;;;25.24;60.80
11343;BME280;5726;42.160;24.746;2023-05-23T07:27:06;99255.84;;;25.34;61.61
11343;BME280;5726;42.160;24.746;2023-05-23T07:29:31;99259.00;;;25.70;60.82
11343;BME280;5726;42.160;24.746;2023-05-23T07:31:57;99261.31;;;26.10;59.85
11343;BME280;5726;42.160;24.746;2023-05-23T07:34:23;99258.84;;;26.47;57.76
11343;BME280;5726;42.160;24.746;2023-05-23T07:36:49;99253.78;;;26.38;57.52
11343;BME280;5726;42.160;24.746;2023-05-23T07:39:14;99251.06;;;26.21;58.15
11343;BME280;5726;42.160;24.746;2023-05-23T07:41:46;99252.22;;;26.27;58.63
11343;BME280;5726;42.160;24.746;2023-05-23T07:44:11;99256.53;;;26.42;57.58
11343;BME280;5726;42.160;24.746;2023-05-23T07:46:36;99246.75;;;26.23;58.16
11343;BME280;5726;42.160;24.746;2023-05-23T07:49:02;99247.06;;;26.46;59.37
11343;BME280;5726;42.160;24.746;2023-05-23T07:51:27;99243.84;;;26.68;58.48
11343;BME280;5726;42.160;24.746;2023-05-23T07:53:53;99249.63;;;26.91;57.81
11343;BME280;5726;42.160;24.746;2023-05-23T07:56:18;99247.47;;;27.19;57.17
11343;BME280;5726;42.160;24.746;2023-05-23T07:58:44;99254.44;;;27.38;56.10
11343;BME280;5726;42.160;24.746;2023-05-23T08:01:09;99246.88;;;27.48;55.20
11343;BME280;5726;42.160;24.746;2023-05-23T08:03:53;99249.91;;;27.64;55.50
11343;BME280;5726;42.160;24.746;2023-05-23T08:06:19;99247.13;;;27.68;55.00
11343;BME280;5726;42.160;24.746;2023-05-23T08:08:44;99257.47;;;27.53;56.08
11343;BME280;5726;42.160;24.746;2023-05-23T08:11:10;99258.19;;;27.61;54.93
11343;BME280;5726;42.160;24.746;2023-05-23T08:13:35;99251.56;;;27.55;54.18
11343;BME280;5726;42.160;24.746;2023-05-23T08:16:00;99246.63;;;27.80;55.17
11343;BME280;5726;42.160;24.746;2023-05-23T08:18:26;99251.88;;;28.04;55.75
11343;BME280;5726;42.160;24.746;2023-05-23T08:20:52;99246.25;;;27.78;55.50
11343;BME280;5726;42.160;24.746;2023-05-23T08:23:18;99238.00;;;28.14;55.12
11343;BME280;5726;42.160;24.746;2023-05-23T08:25:44;99245.03;;;27.79;53.48
11343;BME280;5726;42.160;24.746;2023-05-23T08:28:09;99240.34;;;28.16;53.14
11343;BME280;5726;42.160;24.746;2023-05-23T08:30:35;99246.88;;;27.95;51.29
11343;BME280;5726;42.160;24.746;2023-05-23T08:33:00;99248.47;;;27.93;51.20
11343;BME280;5726;42.160;24.746;2023-05-23T08:35:28;99244.00;;;27.66;52.38
11343;BME280;5726;42.160;24.746;2023-05-23T08:38:04;99242.78;;;27.67;52.62
11343;BME280;5726;42.160;24.746;2023-05-23T08:40:30;99243.41;;;27.85;49.50
11343;BME280;5726;42.160;24.746;2023-05-23T08:42:57;99240.19;;;27.93;51.43
11343;BME280;5726;42.160;24.746;2023-05-23T08:45:22;99235.53;;;28.23;51.29
11343;BME280;5726;42.160;24.746;2023-05-23T08:47:49;99237.06;;;27.51;48.02
11343;BME280;5726;42.160;24.746;2023-05-23T08:50:16;99236.25;;;27.50;49.94
11343;BME280;5726;42.160;24.746;2023-05-23T08:52:53;99236.25;;;27.50;51.36
11343;BME280;5726;42.160;24.746;2023-05-23T08:55:21;99236.25;;;27.94;49.79
11343;BME280;5726;42.160;24.746;2023-05-23T08:57:48;99237.28;;;28.10;50.61
11343;BME280;5726;42.160;24.746;2023-05-23T09:02:59;99234.88;;;28.49;49.41
11343;BME280;5726;42.160;24.746;2023-05-23T09:05:25;99231.50;;;28.64;49.81
11343;BME280;5726;42.160;24.746;2023-05-23T09:07:51;99232.16;;;28.05;47.34
11343;BME280;5726;42.160;24.746;2023-05-23T09:10:19;99235.38;;;28.00;48.67
11343;BME280;5726;42.160;24.746;2023-05-23T09:12:44;99232.31;;;27.92;48.46
11343;BME280;5726;42.160;24.746;2023-05-23T09:15:11;99232.50;;;27.74;49.33
11343;BME280;5726;42.160;24.746;2023-05-23T09:17:36;99229.75;;;27.24;50.40
11343;BME280;5726;42.160;24.746;2023-05-23T09:20:02;99229.97;;;27.43;49.70
11343;BME280;5726;42.160;24.746;2023-05-23T09:22:31;99219.44;;;26.70;50.92
11343;BME280;5726;42.160;24.746;2023-05-23T09:24:56;99217.03;;;26.83;51.17
11343;BME280;5726;42.160;24.746;2023-05-23T09:27:22;99217.59;;;27.18;50.05
11343;BME280;5726;42.160;24.746;2023-05-23T09:29:49;99223.75;;;27.36;48.93
11343;BME280;5726;42.160;24.746;2023-05-23T09:32:16;99225.63;;;27.45;50.22
11343;BME280;5726;42.160;24.746;2023-05-23T09:34:55;99218.09;;;27.56;49.06
11343;BME280;5726;42.160;24.746;2023-05-23T09:37:21;99221.50;;;27.71;48.01
11343;BME280;5726;42.160;24.746;2023-05-23T09:39:49;99227.72;;;27.35;47.94
11343;BME280;5726;42.160;24.746;2023-05-23T09:42:19;99228.53;;;27.28;48.23
11343;BME280;5726;42.160;24.746;2023-05-23T09:44:45;99221.00;;;26.78;48.65
11343;BME280;5726;42.160;24.746;2023-05-23T09:47:10;99222.91;;;26.85;48.90
11343;BME280;5726;42.160;24.746;2023-05-23T09:49:38;99217.16;;;26.62;49.35
11343;BME280;5726;42.160;24.746;2023-05-23T09:52:04;99219.50;;;26.63;48.66
11343;BME280;5726;42.160;24.746;2023-05-23T09:54:30;99212.75;;;26.78;46.04
11343;BME280;5726;42.160;24.746;2023-05-23T09:57:14;99215.16;;;26.62;47.92
11343;BME280;5726;42.160;24.746;2023-05-23T09:59:51;99215.06;;;26.83;46.41
11343;BME280;5726;42.160;24.746;2023-05-23T10:05:08;99218.78;;;26.42;47.59
11343;BME280;5726;42.160;24.746;2023-05-23T10:07:37;99213.38;;;26.28;47.66
11343;BME280;5726;42.160;24.746;2023-05-23T10:10:04;99211.00;;;26.20;47.88
11343;BME280;5726;42.160;24.746;2023-05-23T10:15:01;99203.78;;;26.60;49.19
11343;BME280;5726;42.160;24.746;2023-05-23T10:17:39;99210.09;;;26.57;47.51
11343;BME280;5726;42.160;24.746;2023-05-23T10:20:10;99214.09;;;26.43;47.47
11343;BME280;5726;42.160;24.746;2023-05-23T10:22:39;99210.47;;;26.59;47.05
11343;BME280;5726;42.160;24.746;2023-05-23T10:25:06;99206.16;;;26.55;47.38
11343;BME280;5726;42.160;24.746;2023-05-23T10:27:38;99207.69;;;26.66;47.24
11343;BME280;5726;42.160;24.746;2023-05-23T10:30:07;99205.91;;;27.00;46.00
11343;BME280;5726;42.160;24.746;2023-05-23T10:32:34;99205.84;;;27.10;45.58
11343;BME280;5726;42.160;24.746;2023-05-23T10:43:14;99193.44;;;26.82;49.14
11343;BME280;5726;42.160;24.746;2023-05-23T10:45:42;99185.56;;;26.87;47.21
11343;BME280;5726;42.160;24.746;2023-05-23T10:51:05;99183.91;;;27.00;47.58
11343;BME280;5726;42.160;24.746;2023-05-23T10:53:39;99190.91;;;27.11;47.13
11343;BME280;5726;42.160;24.746;2023-05-23T10:56:06;99185.41;;;27.11;47.59
11343;BME280;5726;42.160;24.746;2023-05-23T10:58:33;99182.59;;;27.15;47.66
11343;BME280;5726;42.160;24.746;2023-05-23T11:01:12;99177.63;;;27.46;47.99
11343;BME280;5726;42.160;24.746;2023-05-23T11:06:41;99188.75;;;27.36;49.04
11343;BME280;5726;42.160;24.746;2023-05-23T11:09:12;99182.97;;;27.20;48.29
11343;BME280;5726;42.160;24.746;2023-05-23T11:17:24;99187.16;;;26.78;49.00
11343;BME280;5726;42.160;24.746;2023-05-23T11:19:57;99191.63;;;27.19;47.80
11343;BME280;5726;42.160;24.746;2023-05-23T11:22:26;99178.53;;;27.33;47.79
11343;BME280;5726;42.160;24.746;2023-05-23T11:24:54;99194.47;;;27.08;47.78
11343;BME280;5726;42.160;24.746;2023-05-23T11:27:37;99183.72;;;27.24;47.98
11343;BME280;5726;42.160;24.746;2023-05-23T11:30:06;99186.81;;;27.30;47.68
11343;BME280;5726;42.160;24.746;2023-05-23T11:32:32;99184.16;;;27.19;47.28
11343;BME280;5726;42.160;24.746;2023-05-23T11:34:59;99185.50;;;26.94;47.45
11343;BME280;5726;42.160;24.746;2023-05-23T11:37:26;99194.69;;;26.70;46.54
11343;BME280;5726;42.160;24.746;2023-05-23T11:39:51;99183.31;;;26.68;45.51
11343;BME280;5726;42.160;24.746;2023-05-23T11:42:17;99187.91;;;26.85;46.68
11343;BME280;5726;42.160;24.746;2023-05-23T11:44:42;99193.03;;;26.90;46.46
11343;BME280;5726;42.160;24.746;2023-05-23T11:47:09;99184.63;;;27.07;45.52
11343;BME280;5726;42.160;24.746;2023-05-23T11:49:37;99186.25;;;27.05;46.24
11343;BME280;5726;42.160;24.746;2023-05-23T11:52:04;99190.94;;;27.08;46.81
11343;BME280;5726;42.160;24.746;2023-05-23T11:54:30;99194.34;;;27.26;46.68
11343;BME280;5726;42.160;24.746;2023-05-23T11:56:56;99201.22;;;26.97;46.74
11343;BME280;5726;42.160;24.746;2023-05-23T11:59:23;99187.25;;;26.64;46.78
11343;BME280;5726;42.160;24.746;2023-05-23T12:01:50;99193.66;;;26.47;47.84
11343;BME280;5726;42.160;24.746;2023-05-23T12:04:16;99186.56;;;26.46;48.87
11343;BME280;5726;42.160;24.746;2023-05-23T12:06:46;99200.59;;;26.72;49.14
11343;BME280;5726;42.160;24.746;2023-05-23T12:09:13;99188.19;;;26.37;57.27
11343;BME280;5726;42.160;24.746;2023-05-23T12:11:40;99171.53;;;25.38;59.93
11343;BME280;5726;42.160;24.746;2023-05-23T12:14:06;99193.09;;;25.08;61.46
11343;BME280;5726;42.160;24.746;2023-05-23T12:16:33;99182.88;;;25.05;61.82
11343;BME280;5726;42.160;24.746;2023-05-23T12:18:59;99189.56;;;25.18;60.15
11343;BME280;5726;42.160;24.746;2023-05-23T12:21:26;99187.59;;;25.36;58.10
11343;BME280;5726;42.160;24.746;2023-05-23T12:23:51;99183.25;;;24.93;57.52
11343;BME280;5726;42.160;24.746;2023-05-23T12:26:17;99178.59;;;25.11;58.28
11343;BME280;5726;42.160;24.746;2023-05-23T12:28:43;99172.72;;;25.16;57.86
11343;BME280;5726;42.160;24.746;2023-05-23T12:31:20;99170.75;;;25.37;57.39
11343;BME280;5726;42.160;24.746;2023-05-23T12:33:47;99180.16;;;25.33;57.46
11343;BME280;5726;42.160;24.746;2023-05-23T12:36:24;99183.31;;;25.28;57.65
11343;BME280;5726;42.160;24.746;2023-05-23T12:38:50;99164.09;;;25.21;56.84
11343;BME280;5726;42.160;24.746;2023-05-23T12:41:17;99161.72;;;25.30;57.52
11343;BME280;5726;42.160;24.746;2023-05-23T12:43:53;99159.34;;;24.97;57.52
11343;BME280;5726;42.160;24.746;2023-05-23T12:46:26;99152.28;;;24.96;58.63
11343;BME280;5726;42.160;24.746;2023-05-23T12:48:52;99153.47;;;24.99;57.75
11343;BME280;5726;42.160;24.746;2023-05-23T12:51:18;99151.94;;;25.08;57.52
11343;BME280;5726;42.160;24.746;2023-05-23T12:53:43;99141.34;;;25.24;56.49
11343;BME280;5726;42.160;24.746;2023-05-23T12:56:09;99130.75;;;25.29;56.32
11343;BME280;5726;42.160;24.746;2023-05-23T12:58:35;99131.91;;;25.32;56.54
11343;BME280;5726;42.160;24.746;2023-05-23T13:01:01;99152.28;;;25.55;55.66
11343;BME280;5726;42.160;24.746;2023-05-23T13:03:27;99132.66;;;25.56;55.82
11343;BME280;5726;42.160;24.746;2023-05-23T13:05:55;99145.63;;;25.42;56.68
11343;BME280;5726;42.160;24.746;2023-05-23T13:08:25;99137.81;;;25.37;56.87
11343;BME280;5726;42.160;24.746;2023-05-23T13:10:54;99132.69;;;25.43;56.40
11343;BME280;5726;42.160;24.746;2023-05-23T13:13:20;99135.00;;;25.61;56.44
11343;BME280;5726;42.160;24.746;2023-05-23T13:15:46;99128.34;;;25.62;55.86
11343;BME280;5726;42.160;24.746;2023-05-23T13:18:12;99132.66;;;25.77;56.79
11343;BME280;5726;42.160;24.746;2023-05-23T13:20:37;99129.47;;;25.86;56.62
11343;BME280;5726;42.160;24.746;2023-05-23T13:23:03;99124.38;;;25.88;56.46
11343;BME280;5726;42.160;24.746;2023-05-23T13:25:30;99129.88;;;25.63;55.06
11343;BME280;5726;42.160;24.746;2023-05-23T13:27:55;99132.19;;;25.86;55.57
11343;BME280;5726;42.160;24.746;2023-05-23T13:30:22;99134.59;;;25.77;56.51
11343;BME280;5726;42.160;24.746;2023-05-23T13:32:48;99136.56;;;25.83;55.93